createdAt,value
2022-09-05T07:15:15.651Z,375
2022-09-05T07:16:16.413Z,371
2022-09-05T07:17:16.111Z,377
2022-09-05T07:18:15.988Z,376
2022-09-05T07:19:15.478Z,370
2022-09-05T07:20:07.365Z,367
2022-09-05T07:21:16.297Z,361
2022-09-05T07:22:51.761Z,364
2022-09-05T07:24:14.426Z,362
2022-09-05T07:24:54.443Z,370
2022-09-05T07:25:18.367Z,379
2022-09-05T07:27:16.349Z,386
2022-09-05T07:28:34.282Z,383
2022-09-05T07:29:15.428Z,378
2022-09-05T07:30:15.779Z,365
2022-09-05T07:31:37.179Z,363
2022-09-05T07:32:16.038Z,353
2022-09-05T07:33:07.259Z,371
2022-09-05T07:34:24.879Z,365
2022-09-05T07:35:15.902Z,362
2022-09-05T07:36:16.594Z,358
2022-09-05T07:37:20.545Z,356
2022-09-05T07:38:16.137Z,368
2022-09-05T07:39:31.735Z,375
2022-09-05T07:41:07.860Z,379
2022-09-05T07:42:16.280Z,371
2022-09-05T07:43:18.891Z,370
2022-09-05T07:44:15.297Z,361
2022-09-05T07:45:16.681Z,368
2022-09-05T07:46:16.303Z,371
2022-09-05T07:47:15.981Z,377
2022-09-05T07:48:16.563Z,376
2022-09-05T07:49:16.268Z,387
2022-09-05T07:57:28.714Z,392
2022-09-05T07:57:35.469Z,380
2022-09-05T07:58:04.036Z,365
2022-09-05T07:58:13.218Z,366
2022-09-05T07:58:22.200Z,373
2022-09-05T07:58:38.297Z,364
2022-09-05T07:58:45.409Z,361
2022-09-05T07:59:15.313Z,372
2022-09-05T08:00:31.061Z,368
2022-09-05T08:02:07.283Z,367
2022-09-05T08:03:15.412Z,379
2022-09-05T08:04:15.185Z,369
2022-09-05T08:05:16.361Z,364
2022-09-05T08:06:16.232Z,359
2022-09-05T08:07:52.143Z,365
2022-09-05T08:08:16.173Z,370
2022-09-05T08:10:11.120Z,382
2022-09-05T08:10:54.981Z,373
2022-09-05T08:11:32.399Z,369
2022-09-05T08:12:16.244Z,370
2022-09-05T08:13:31.402Z,378
2022-09-05T08:15:14.151Z,364
2022-09-05T08:16:19.573Z,360
2022-09-05T08:17:16.233Z,356
2022-09-05T08:18:07.596Z,362
2022-09-05T08:19:15.534Z,363
2022-09-05T08:20:15.731Z,359
2022-09-05T08:21:16.406Z,349
2022-09-05T08:22:16.108Z,355
2022-09-05T08:23:16.276Z,364
2022-09-05T08:24:17.948Z,355
2022-09-05T08:26:16.245Z,357
2022-09-05T08:27:21.492Z,367
2022-09-05T08:29:06.934Z,350
2022-09-05T08:30:30.541Z,336
2022-09-05T08:31:16.156Z,350
2022-09-05T08:32:15.686Z,346
2022-09-05T08:33:16.640Z,351
2022-09-05T08:34:15.379Z,358
2022-09-05T08:35:15.722Z,354
2022-09-05T08:36:16.412Z,351
2022-09-05T08:37:16.263Z,349
2022-09-05T08:38:07.567Z,347
2022-09-05T08:39:15.403Z,353
2022-09-05T08:40:16.138Z,352
2022-09-05T08:41:16.490Z,347
2022-09-05T08:42:06.801Z,340
2022-09-05T08:46:57.482Z,341
2022-09-05T08:47:07.325Z,334
2022-09-05T08:47:11.503Z,345
2022-09-05T08:47:21.001Z,352
2022-09-05T08:48:16.155Z,350
2022-09-05T08:49:32.195Z,359
2022-09-05T08:50:16.686Z,353
2022-09-05T08:51:07.462Z,343
2022-09-05T08:52:16.168Z,339
2022-09-05T08:54:06.819Z,347
2022-09-05T08:55:07.751Z,341
2022-09-05T08:56:17.041Z,347
2022-09-05T08:57:16.271Z,343
2022-09-05T08:58:07.410Z,340
2022-09-05T08:59:36.186Z,348
2022-09-05T09:00:31.184Z,354
2022-09-05T09:01:16.358Z,357
2022-09-05T09:02:46.420Z,343
2022-09-05T09:03:16.364Z,342
2022-09-05T09:04:15.492Z,343
2022-09-05T09:05:21.803Z,350
2022-09-05T09:06:13.459Z,357
2022-09-05T09:07:55.290Z,340
2022-09-05T09:08:22.586Z,342
2022-09-05T09:09:15.260Z,330
2022-09-05T09:10:25.745Z,334
2022-09-05T09:11:16.161Z,325
2022-09-05T09:12:07.228Z,329
2022-09-05T09:13:16.264Z,334
2022-09-05T09:14:29.478Z,337
2022-09-05T09:15:15.905Z,344
2022-09-05T09:16:16.299Z,341
2022-09-05T09:17:07.222Z,344
2022-09-05T09:18:15.772Z,340
2022-09-05T09:20:16.134Z,341
2022-09-05T09:21:15.738Z,350
2022-09-05T09:22:16.388Z,347
2022-09-05T09:23:36.076Z,354
2022-09-05T09:24:14.991Z,349
2022-09-05T09:25:25.904Z,345
2022-09-05T09:26:07.331Z,344
2022-09-05T09:27:16.356Z,346
2022-09-05T09:28:54.397Z,340
2022-09-05T09:29:15.670Z,351
2022-09-05T09:30:16.070Z,339
2022-09-05T09:31:07.284Z,328
2022-09-05T09:32:07.258Z,327
2022-09-05T09:33:16.597Z,337
2022-09-05T09:34:15.359Z,340
2022-09-05T09:35:15.806Z,331
2022-09-05T09:36:16.237Z,320
2022-09-05T09:37:15.749Z,312
2022-09-05T09:38:16.540Z,325
2022-09-05T09:39:42.331Z,335
2022-09-05T09:40:15.788Z,341
2022-09-05T09:41:16.375Z,344
2022-09-05T09:42:19.001Z,348
2022-09-05T09:43:16.521Z,349
2022-09-05T09:44:15.449Z,341
2022-09-05T09:45:27.604Z,346
2022-09-05T09:46:15.966Z,352
2022-09-05T09:47:16.383Z,348
2022-09-05T09:48:07.871Z,343
2022-09-05T09:49:26.544Z,341
2022-09-05T09:50:15.967Z,351
2022-09-05T09:51:15.515Z,347
2022-09-05T09:52:26.190Z,345
2022-09-05T09:53:15.791Z,348
2022-09-05T09:54:15.841Z,349
2022-09-05T09:55:22.107Z,354
2022-09-05T09:56:15.989Z,341
2022-09-05T09:57:16.659Z,345
2022-09-05T09:58:15.979Z,338
2022-09-05T09:59:15.094Z,336
2022-09-05T10:00:16.362Z,335
2022-09-05T10:01:40.431Z,352
2022-09-05T10:02:24.032Z,348
2022-09-05T10:11:58.995Z,355
2022-09-05T10:12:03.748Z,350
2022-09-05T10:12:14.236Z,357
2022-09-05T10:12:29.278Z,360
2022-09-05T10:13:11.995Z,356
2022-09-05T10:13:39.503Z,370
2022-09-05T10:14:47.623Z,352
2022-09-05T10:15:30.412Z,361
2022-09-05T10:16:16.225Z,358
2022-09-05T10:17:15.622Z,364
2022-09-05T10:18:16.425Z,363
2022-09-05T10:19:15.281Z,365
2022-09-05T10:21:21.957Z,377
2022-09-05T10:22:41.296Z,373
2022-09-05T10:23:16.308Z,366
2022-09-05T10:24:15.022Z,365
2022-09-05T10:25:24.117Z,362
2022-09-05T10:26:16.345Z,357
2022-09-05T10:27:06.906Z,354
2022-09-05T10:28:16.265Z,339
2022-09-05T10:29:41.248Z,340
2022-09-05T10:35:23.978Z,339
2022-09-05T10:35:32.728Z,330
2022-09-05T10:35:41.297Z,331
2022-09-05T10:35:44.600Z,349
2022-09-05T10:36:07.822Z,352
2022-09-05T10:37:07.784Z,342
2022-09-05T10:38:15.748Z,344
2022-09-05T10:39:17.531Z,340
2022-09-05T10:40:15.746Z,355
2022-09-05T10:41:26.778Z,366
2022-09-05T10:42:16.043Z,369
2022-09-05T10:43:16.499Z,362
2022-09-05T10:44:15.543Z,364
2022-09-05T10:45:15.808Z,352
2022-09-05T10:47:16.051Z,367
2022-09-05T10:48:13.328Z,357
2022-09-05T10:49:16.420Z,352
2022-09-05T10:50:15.902Z,356
2022-09-05T10:51:27.261Z,368
2022-09-05T10:52:23.997Z,375
2022-09-05T10:53:17.142Z,366
2022-09-05T10:55:16.148Z,367
2022-09-05T10:56:07.999Z,364
2022-09-05T10:57:16.493Z,366
2022-09-05T10:58:16.212Z,354
2022-09-05T11:02:34.703Z,359
2022-09-05T11:02:57.627Z,362
2022-09-05T11:03:22.772Z,357
2022-09-05T11:03:40.007Z,359
2022-09-05T11:03:46.303Z,351
2022-09-05T11:04:15.270Z,345
2022-09-05T11:05:16.580Z,338
2022-09-05T11:06:16.074Z,350
2022-09-05T11:07:16.153Z,352
2022-09-05T11:08:16.575Z,360
2022-09-05T11:09:16.701Z,357
2022-09-05T11:10:07.526Z,360
2022-09-05T11:11:28.490Z,355
2022-09-05T11:12:16.439Z,357
2022-09-05T11:13:16.448Z,367
2022-09-05T11:14:29.327Z,374
2022-09-05T11:15:16.385Z,368
2022-09-05T11:16:18.293Z,355
2022-09-05T11:17:16.001Z,356
2022-09-05T11:18:16.540Z,360
2022-09-05T11:19:16.204Z,346
2022-09-05T11:20:27.661Z,344
2022-09-05T11:21:16.248Z,345
2022-09-05T11:24:15.606Z,340
2022-09-05T11:25:18.188Z,333
2022-09-05T11:26:16.368Z,337
2022-09-05T11:27:29.336Z,345
2022-09-05T11:28:16.011Z,349
2022-09-05T11:29:07.027Z,333
2022-09-05T11:30:34.410Z,328
2022-09-05T11:31:08.064Z,342
2022-09-05T11:40:28.905Z,354
2022-09-05T11:41:19.594Z,350
2022-09-05T11:41:30.096Z,346
2022-09-05T11:41:39.003Z,336
2022-09-05T11:41:46.295Z,345
2022-09-05T11:42:01.408Z,342
2022-09-05T11:42:11.076Z,347
2022-09-05T11:43:16.168Z,360
2022-09-05T11:44:29.797Z,356
2022-09-05T11:45:07.615Z,351
2022-09-05T11:46:16.202Z,343
2022-09-05T11:47:39.942Z,348
2022-09-05T11:49:15.616Z,351
2022-09-05T11:50:16.261Z,342
2022-09-05T11:51:07.731Z,352
2022-09-05T11:52:16.068Z,359
2022-09-05T11:53:16.014Z,345
2022-09-05T11:54:06.925Z,339
2022-09-05T11:55:25.710Z,337
2022-09-05T11:57:37.716Z,325
2022-09-05T11:58:29.694Z,322
2022-09-05T11:59:15.546Z,326
2022-09-05T12:01:47.284Z,336
2022-09-05T12:02:27.356Z,335
2022-09-05T12:41:35.459Z,349
2022-09-05T12:42:28.097Z,347
2022-09-05T12:44:41.860Z,348
2022-09-05T12:44:46.577Z,338
2022-09-05T12:44:58.254Z,329
2022-09-05T12:45:01.511Z,336
2022-09-05T12:45:17.133Z,334
2022-09-05T12:45:41.682Z,342
2022-09-05T12:46:10.926Z,344
2022-09-05T12:47:18.757Z,339
2022-09-05T12:47:29.443Z,333
2022-09-05T12:47:37.139Z,318
2022-09-05T12:48:43.513Z,347
2022-09-05T12:49:11.437Z,368
2022-09-05T12:49:39.375Z,368
2022-09-05T12:50:14.837Z,356
2022-09-05T12:51:51.309Z,340
2022-09-05T12:52:26.055Z,342
2022-09-05T12:52:55.698Z,331
2022-09-05T12:53:09.229Z,344
2022-09-05T12:53:18.491Z,341
2022-09-05T12:53:27.734Z,343
2022-09-05T12:53:35.783Z,351
2022-09-05T12:54:24.524Z,345
2022-09-05T12:55:16.245Z,356
2022-09-05T13:04:05.932Z,358
2022-09-05T13:04:30.192Z,355
2022-09-05T13:05:07.488Z,357
2022-09-05T13:05:17.280Z,337
2022-09-05T13:05:26.822Z,333
2022-09-05T13:05:34.926Z,322
2022-09-05T13:05:38.303Z,323
2022-09-05T13:05:49.720Z,337
2022-09-05T13:07:15.929Z,344
2022-09-05T13:08:07.102Z,353
2022-09-05T13:09:14.929Z,358
2022-09-05T13:15:27.338Z,340
2022-09-05T13:15:36.007Z,346
2022-09-05T13:15:43.649Z,343
2022-09-05T13:15:51.290Z,359
2022-09-05T13:15:54.824Z,348
2022-09-05T13:16:27.398Z,342
2022-09-05T13:17:16.172Z,347
2022-09-05T13:19:15.367Z,331
2022-09-05T13:20:07.331Z,337
2022-09-05T13:22:15.862Z,342
2022-09-05T13:23:07.659Z,344
2022-09-05T13:24:15.699Z,345
2022-09-05T13:25:07.474Z,342
2022-09-05T13:26:16.326Z,355
2022-09-05T13:27:21.433Z,358
2022-09-05T13:28:15.703Z,360
2022-09-05T13:29:10.073Z,354
2022-09-05T13:38:48.445Z,340
2022-09-05T13:38:56.390Z,329
2022-09-05T13:39:06.344Z,331
2022-09-05T13:39:14.012Z,333
2022-09-05T13:39:17.355Z,331
2022-09-05T13:39:27.912Z,351
2022-09-05T13:39:37.180Z,343
2022-09-05T13:39:46.977Z,344
2022-09-05T13:40:16.080Z,341
2022-09-05T13:42:16.727Z,343
2022-09-05T13:43:15.852Z,345
2022-09-05T13:44:30.835Z,350
2022-09-05T13:45:16.566Z,346
2022-09-05T13:46:16.437Z,348
2022-09-05T13:47:34.154Z,338
2022-09-05T13:48:16.447Z,345
2022-09-05T13:49:32.402Z,346
2022-09-05T13:50:15.824Z,336
2022-09-05T13:51:16.718Z,338
2022-09-05T13:52:16.255Z,325
2022-09-05T13:53:19.442Z,338
2022-09-05T13:54:15.361Z,344
2022-09-05T13:55:15.658Z,341
2022-09-05T13:56:16.696Z,345
2022-09-05T13:57:16.155Z,347
2022-09-05T13:58:15.968Z,340
2022-09-05T14:00:07.351Z,328
2022-09-05T14:01:16.249Z,331
2022-09-05T14:02:31.078Z,347
2022-09-05T14:03:44.430Z,332
2022-09-05T14:05:05.243Z,337
2022-09-05T14:05:24.470Z,340
2022-09-05T14:06:50.312Z,343
2022-09-05T14:08:07.593Z,315
2022-09-05T14:09:41.468Z,298
2022-09-05T14:10:16.699Z,306
2022-09-05T14:11:16.582Z,314
2022-09-05T14:12:16.243Z,305
2022-09-05T14:13:16.555Z,313
2022-09-05T14:14:10.980Z,305
2022-09-05T14:15:16.170Z,307
2022-09-05T14:16:16.155Z,319
2022-09-05T14:17:50.789Z,313
2022-09-05T14:18:20.106Z,317
2022-09-05T14:19:15.646Z,312
2022-09-05T14:20:16.605Z,316
2022-09-05T14:21:15.910Z,321
2022-09-05T14:22:08.338Z,316
2022-09-05T14:23:15.851Z,326
2022-09-05T14:24:27.372Z,349
2022-09-05T14:25:07.794Z,354
2022-09-05T14:27:15.950Z,333
2022-09-05T14:28:16.406Z,327
2022-09-05T14:29:15.980Z,343
2022-09-05T14:33:02.349Z,352
2022-09-05T14:38:29.220Z,356
2022-09-05T14:38:36.304Z,344
2022-09-05T14:38:42.672Z,338
2022-09-05T14:38:52.055Z,351
2022-09-05T14:39:09.362Z,352
2022-09-05T14:39:20.690Z,346
2022-09-05T14:40:35.988Z,329
2022-09-05T14:41:15.522Z,335
2022-09-05T14:42:16.591Z,355
2022-09-05T14:43:17.422Z,358
2022-09-05T14:45:07.378Z,353
2022-09-05T14:46:17.626Z,337
2022-09-05T14:47:35.052Z,328
2022-09-05T14:48:16.641Z,345
2022-09-05T14:49:15.560Z,359
2022-09-05T14:50:17.961Z,357
2022-09-05T14:51:25.142Z,351
2022-09-05T14:52:15.720Z,342
2022-09-05T14:55:26.680Z,359
2022-09-05T15:02:43.970Z,366
2022-09-05T15:03:02.208Z,364
2022-09-05T15:03:21.395Z,353
2022-09-05T15:04:33.502Z,352
2022-09-05T15:04:47.043Z,344
2022-09-05T15:04:53.117Z,347
2022-09-05T15:04:55.835Z,353
2022-09-05T15:05:08.408Z,342
2022-09-05T15:05:33.738Z,349
2022-09-05T15:07:16.269Z,359
2022-09-05T15:12:25.909Z,367
2022-09-05T15:12:56.534Z,364
2022-09-05T15:13:10.233Z,370
2022-09-05T15:13:19.605Z,340
2022-09-05T15:13:30.701Z,339
2022-09-05T15:13:36.661Z,336
2022-09-05T15:15:16.448Z,343
2022-09-05T15:16:16.316Z,349
2022-09-05T15:17:07.277Z,339
2022-09-05T15:18:21.347Z,336
2022-09-05T15:19:14.958Z,350
2022-09-05T15:20:16.238Z,333
2022-09-05T15:21:15.875Z,341
2022-09-05T15:22:21.339Z,346
2022-09-05T15:23:16.268Z,344
2022-09-05T15:24:18.100Z,350
2022-09-05T15:25:21.756Z,361
2022-09-05T15:26:16.622Z,343
2022-09-05T15:27:20.945Z,340
2022-09-05T15:28:15.797Z,338
2022-09-05T15:29:20.773Z,360
2022-09-05T15:30:21.242Z,358
2022-09-05T15:31:15.522Z,352
2022-09-05T15:32:16.572Z,345
2022-09-05T15:34:15.761Z,344
2022-09-05T15:35:16.226Z,333
2022-09-05T15:36:21.108Z,354
2022-09-05T15:37:08.981Z,358
2022-09-05T15:38:15.323Z,355
2022-09-05T15:39:11.762Z,354
2022-09-05T15:40:27.674Z,337
2022-09-05T15:41:16.006Z,350
2022-09-05T15:42:15.563Z,341
2022-09-05T15:43:07.955Z,336
2022-09-05T15:44:19.729Z,337
2022-09-05T15:45:16.274Z,341
2022-09-05T15:46:07.515Z,332
2022-09-05T15:47:15.759Z,330
2022-09-05T15:48:18.336Z,339
2022-09-05T15:49:15.454Z,340
2022-09-05T15:50:26.489Z,334
2022-09-05T15:51:15.458Z,321
2022-09-05T15:52:16.375Z,319
2022-09-05T15:53:15.959Z,343
2022-09-05T15:54:27.008Z,345
2022-09-05T15:55:21.155Z,349
2022-09-05T15:56:15.488Z,361
2022-09-05T15:57:21.940Z,355
2022-09-05T15:58:15.757Z,354
2022-09-05T15:59:20.293Z,359
2022-09-05T16:00:16.123Z,356
2022-09-05T16:01:35.917Z,359
2022-09-05T16:02:21.027Z,360
2022-09-05T16:10:29.027Z,352
2022-09-05T16:11:51.493Z,348
2022-09-05T16:12:16.616Z,363
2022-09-05T16:12:33.916Z,362
2022-09-05T16:12:41.813Z,357
2022-09-05T16:12:49.435Z,341
2022-09-05T16:12:56.683Z,329
2022-09-05T16:13:05.333Z,340
2022-09-05T16:13:14.550Z,341
2022-09-05T16:13:57.374Z,342
2022-09-05T16:14:15.852Z,340
2022-09-05T16:23:33.828Z,361
2022-09-05T16:23:46.622Z,365
2022-09-05T16:23:49.942Z,361
2022-09-05T16:24:00.790Z,347
2022-09-05T16:24:11.693Z,345
2022-09-05T16:24:41.540Z,344
2022-09-05T16:25:01.134Z,349
2022-09-05T16:25:15.566Z,350
2022-09-05T16:25:24.560Z,351
2022-09-05T16:27:15.967Z,355
2022-09-05T16:28:16.573Z,354
2022-09-05T16:29:16.292Z,350
2022-09-05T16:30:20.451Z,348
2022-09-05T16:31:16.655Z,345
2022-09-05T16:32:16.173Z,347
2022-09-05T16:33:16.155Z,348
2022-09-05T16:34:11.700Z,356
2022-09-05T16:35:16.638Z,365
2022-09-05T16:36:20.560Z,357
2022-09-05T16:37:08.327Z,353
2022-09-05T16:38:15.878Z,354
2022-09-05T16:39:14.923Z,347
2022-09-05T16:40:16.361Z,357
2022-09-05T16:41:07.428Z,367
2022-09-05T16:42:16.407Z,372
2022-09-05T16:43:15.795Z,364
2022-09-05T16:44:16.392Z,366
2022-09-05T16:45:16.214Z,352
2022-09-05T16:46:16.048Z,359
2022-09-05T16:47:16.354Z,355
2022-09-05T16:48:07.579Z,364
2022-09-05T16:49:15.813Z,363
2022-09-05T16:50:23.932Z,356
2022-09-05T16:51:24.687Z,343
2022-09-05T16:52:21.622Z,346
2022-09-05T16:53:34.281Z,342
2022-09-05T16:54:11.088Z,360
2022-09-05T16:55:20.912Z,363
2022-09-05T16:56:16.177Z,359
2022-09-05T16:57:15.576Z,343
2022-09-05T16:58:18.920Z,352
2022-09-05T16:59:15.203Z,346
2022-09-05T17:00:15.599Z,334
2022-09-05T17:01:08.286Z,342
2022-09-05T17:02:07.188Z,352
2022-09-05T17:03:15.974Z,354
2022-09-05T17:04:20.741Z,360
2022-09-05T17:05:16.201Z,362
2022-09-05T17:06:07.857Z,367
2022-09-05T17:07:15.809Z,368
2022-09-05T17:08:07.815Z,363
2022-09-05T17:09:17.499Z,353
2022-09-05T17:10:16.451Z,367
2022-09-05T17:11:33.358Z,372
2022-09-05T17:12:21.432Z,365
2022-09-05T17:13:16.789Z,370
2022-09-05T17:14:07.355Z,364
2022-09-05T17:16:15.870Z,365
2022-09-05T17:17:23.471Z,368
2022-09-05T17:18:37.008Z,374
2022-09-05T17:19:15.434Z,372
2022-09-05T17:20:07.967Z,369
2022-09-05T17:21:18.734Z,365
2022-09-05T17:24:45.170Z,371
2022-09-05T17:30:21.927Z,365
2022-09-05T17:32:05.565Z,360
2022-09-05T17:32:10.718Z,376
2022-09-05T17:32:28.405Z,369
2022-09-05T17:32:36.209Z,360
2022-09-05T17:32:50.800Z,352
2022-09-05T17:33:21.760Z,346
2022-09-05T17:34:14.970Z,364
2022-09-05T17:35:18.057Z,356
2022-09-05T17:36:15.752Z,352
2022-09-05T17:37:18.357Z,358
2022-09-05T17:38:11.604Z,354
2022-09-05T17:39:15.825Z,357
2022-09-05T17:40:15.595Z,354
2022-09-05T17:41:16.550Z,362
2022-09-05T17:42:20.136Z,365
2022-09-05T17:43:22.686Z,353
2022-09-05T17:44:16.539Z,357
2022-09-05T17:45:07.534Z,358
2022-09-05T17:46:21.169Z,363
2022-09-05T17:47:19.161Z,366
2022-09-05T17:48:16.746Z,368
2022-09-05T17:49:23.655Z,370
2022-09-05T17:50:15.642Z,359
2022-09-05T17:51:16.200Z,353
2022-09-05T17:52:16.377Z,366
2022-09-05T17:53:31.095Z,361
2022-09-05T17:54:14.857Z,358
2022-09-05T17:55:16.262Z,350
2022-09-05T17:56:16.028Z,363
2022-09-05T17:58:15.942Z,360
2022-09-05T17:59:15.153Z,373
2022-09-05T18:00:16.699Z,375
2022-09-05T18:01:16.611Z,371
2022-09-05T18:02:19.480Z,373
2022-09-05T18:03:16.452Z,360
2022-09-05T18:04:15.987Z,362
2022-09-05T18:05:16.367Z,373
2022-09-05T18:06:07.352Z,378
2022-09-05T18:07:16.025Z,377
2022-09-05T18:08:16.842Z,369
2022-09-05T18:09:15.594Z,371
2022-09-05T18:30:48.984Z,377
2022-09-05T18:30:52.906Z,382
2022-09-05T18:31:16.808Z,376
2022-09-05T18:31:45.178Z,374
2022-09-05T18:31:55.903Z,373
2022-09-05T18:32:08.518Z,369
2022-09-05T18:32:27.410Z,360
2022-09-05T18:32:38.501Z,373
2022-09-05T18:32:53.875Z,371
2022-09-05T18:33:53.727Z,355
2022-09-05T18:34:10.229Z,368
2022-09-05T18:34:14.430Z,377
2022-09-05T18:34:31.394Z,370
2022-09-05T18:34:47.795Z,368
2022-09-05T18:35:00.150Z,373
2022-09-05T18:35:10.544Z,370
2022-09-05T18:35:37.093Z,369
2022-09-05T18:35:51.730Z,365
2022-09-05T18:36:01.449Z,354
2022-09-05T18:36:11.272Z,365
2022-09-05T18:37:16.286Z,373
2022-09-05T18:38:15.710Z,368
2022-09-05T18:39:15.669Z,362
2022-09-05T18:40:07.393Z,361
2022-09-05T18:41:16.554Z,352
2022-09-05T18:42:33.258Z,361
2022-09-05T18:43:15.932Z,362
2022-09-05T18:44:23.441Z,376
2022-09-05T18:45:28.763Z,378
2022-09-05T18:46:22.442Z,369
2022-09-05T18:47:37.480Z,363
2022-09-05T18:48:16.296Z,370
2022-09-05T18:50:32.313Z,362
2022-09-05T18:50:42.842Z,375
2022-09-05T18:52:16.174Z,370
2022-09-05T18:53:18.587Z,368
2022-09-05T18:54:25.436Z,374
2022-09-05T18:56:11.347Z,369
2022-09-05T18:56:39.421Z,366
2022-09-05T18:57:26.720Z,374
2022-09-05T18:58:07.585Z,373
2022-09-05T18:59:10.144Z,372
2022-09-05T19:00:16.296Z,384
2022-09-05T19:01:15.939Z,375
2022-09-05T19:02:07.553Z,372
2022-09-05T19:03:20.204Z,377
2022-09-05T19:04:06.521Z,361
2022-09-05T19:05:28.449Z,368
2022-09-05T19:06:36.602Z,365
2022-09-05T19:07:08.023Z,357
2022-09-05T19:08:32.010Z,350
2022-09-05T19:09:06.797Z,361
2022-09-05T19:10:40.411Z,365
2022-09-05T19:11:32.500Z,367
2022-09-05T19:12:33.393Z,361
2022-09-05T19:13:16.443Z,367
2022-09-05T19:14:29.530Z,370
2022-09-05T19:15:15.796Z,371
2022-09-05T19:16:48.433Z,375
2022-09-05T19:17:07.829Z,374
2022-09-05T19:18:26.567Z,365
2022-09-05T19:19:16.451Z,359
2022-09-05T19:20:41.363Z,364
2022-09-05T19:21:17.730Z,366
2022-09-05T19:23:08.258Z,371
2022-09-05T19:23:23.386Z,373
2022-09-05T19:24:15.530Z,365
2022-09-05T19:25:15.605Z,372
2022-09-05T19:26:16.279Z,374
2022-09-05T19:37:30.099Z,370
2022-09-05T19:37:51.665Z,365
2022-09-05T19:38:01.149Z,372
2022-09-05T19:38:11.177Z,380
2022-09-05T19:38:19.984Z,363
2022-09-05T19:47:50.282Z,366
2022-09-05T19:48:12.061Z,370
2022-09-05T19:48:20.532Z,375
2022-09-05T19:48:27.325Z,371
2022-09-05T19:48:38.448Z,375
2022-09-05T19:48:49.929Z,380
2022-09-05T19:49:00.595Z,384
2022-09-05T19:49:29.079Z,378
2022-09-05T19:49:41.444Z,379
2022-09-05T19:51:24.916Z,370
2022-09-05T19:52:15.847Z,375
2022-09-05T19:53:16.120Z,380
2022-09-05T19:54:15.140Z,382
2022-09-05T19:56:15.945Z,375
2022-09-05T19:57:16.645Z,371
2022-09-05T19:58:24.418Z,373
2022-09-05T19:59:15.279Z,385
2022-09-05T20:02:07.624Z,382
2022-09-05T20:03:16.376Z,394
2022-09-05T20:04:15.027Z,381
2022-09-05T20:06:30.100Z,379
2022-09-05T20:07:07.184Z,376
2022-09-05T20:08:15.368Z,383
2022-09-05T20:09:15.611Z,381
2022-09-05T20:10:07.761Z,377
2022-09-05T20:11:16.187Z,381
2022-09-05T20:12:18.820Z,377
2022-09-05T20:13:15.881Z,372
2022-09-05T20:14:19.410Z,375
2022-09-05T20:16:16.149Z,376
2022-09-05T20:17:07.521Z,378
2022-09-05T20:18:16.593Z,373
2022-09-05T20:19:15.646Z,376
2022-09-05T20:21:15.656Z,374
2022-09-05T20:22:53.466Z,377
2022-09-05T20:23:15.795Z,385
2022-09-05T20:24:15.894Z,373
2022-09-05T20:25:35.854Z,368
2022-09-05T20:26:15.729Z,376
2022-09-05T20:27:16.916Z,379
2022-09-05T20:28:15.919Z,370
2022-09-05T20:29:20.972Z,375
2022-09-05T20:30:07.716Z,365
2022-09-05T20:31:16.538Z,377
2022-09-05T20:32:16.144Z,373
2022-09-05T20:33:20.696Z,382
2022-09-05T20:34:19.211Z,389
2022-09-05T20:43:37.080Z,373
2022-09-05T20:43:45.010Z,366
2022-09-05T20:43:56.527Z,373
2022-09-05T20:44:02.544Z,387
2022-09-05T20:44:13.474Z,379
2022-09-05T20:45:15.808Z,363
2022-09-05T20:54:34.995Z,355
2022-09-05T20:54:48.125Z,368
2022-09-05T20:54:51.238Z,372
2022-09-05T20:55:46.977Z,355
2022-09-05T20:55:54.918Z,348
2022-09-05T20:56:02.705Z,357
2022-09-05T20:56:12.175Z,369
2022-09-05T20:56:21.429Z,376
2022-09-05T20:56:30.143Z,364
2022-09-05T20:57:15.766Z,362
2022-09-05T20:58:16.721Z,358
2022-09-05T20:59:15.481Z,365
2022-09-05T21:00:16.072Z,367
2022-09-05T21:01:26.317Z,355
2022-09-05T21:02:16.377Z,357
2022-09-05T21:03:18.037Z,363
2022-09-05T21:05:25.886Z,368
2022-09-05T21:06:07.460Z,367
2022-09-05T21:07:15.818Z,359
2022-09-05T21:08:15.462Z,353
2022-09-05T21:09:24.478Z,357
2022-09-05T21:10:15.668Z,359
2022-09-05T21:11:16.170Z,364
2022-09-05T21:12:27.634Z,360
2022-09-05T21:13:15.830Z,376
2022-09-05T21:14:15.571Z,375
2022-09-05T21:15:57.222Z,376
2022-09-05T21:16:15.330Z,358
2022-09-05T21:17:20.565Z,362
2022-09-05T21:18:20.888Z,365
2022-09-05T21:19:07.176Z,356
2022-09-05T21:20:15.667Z,359
2022-09-05T21:21:33.472Z,354
2022-09-05T21:22:07.802Z,362
2022-09-05T21:24:21.947Z,365
2022-09-05T21:25:16.713Z,378
2022-09-05T21:26:16.416Z,373
2022-09-05T21:27:17.277Z,364
2022-09-05T21:28:07.728Z,353
2022-09-05T21:29:14.909Z,350
2022-09-05T21:30:07.622Z,357
2022-09-05T21:32:15.542Z,356
2022-09-05T21:33:44.514Z,357
2022-09-05T21:34:14.999Z,360
2022-09-05T21:35:38.704Z,351
2022-09-05T21:36:15.717Z,348
2022-09-05T21:37:16.334Z,359
2022-09-05T21:38:15.934Z,356
2022-09-05T21:39:14.973Z,353
2022-09-05T21:40:16.326Z,361
2022-09-05T21:41:16.281Z,366
2022-09-05T21:43:49.349Z,360
2022-09-05T21:48:01.150Z,359
2022-09-05T21:48:11.215Z,366
2022-09-05T21:48:20.053Z,369
2022-09-05T21:48:40.128Z,358
2022-09-05T21:49:15.611Z,362
2022-09-05T21:50:30.582Z,373
2022-09-05T21:51:15.552Z,366
2022-09-05T21:52:16.378Z,370
2022-09-05T21:59:36.953Z,364
2022-09-05T21:59:46.725Z,372
2022-09-05T21:59:58.407Z,363
2022-09-05T22:00:16.970Z,370
2022-09-05T22:00:26.471Z,367
2022-09-05T22:02:16.059Z,352
2022-09-05T22:03:23.527Z,360
2022-09-05T22:04:07.669Z,368
2022-09-05T22:05:16.339Z,361
2022-09-05T22:06:07.578Z,363
2022-09-05T22:08:15.646Z,358
2022-09-05T22:09:17.824Z,371
2022-09-05T22:10:07.650Z,367
2022-09-05T22:11:16.237Z,371
2022-09-05T22:12:34.576Z,367
2022-09-05T22:13:16.935Z,369
2022-09-05T22:14:15.521Z,360
2022-09-05T22:15:33.403Z,357
2022-09-05T22:16:14.750Z,349
2022-09-05T22:17:15.971Z,366
2022-09-05T22:18:17.452Z,360
2022-09-05T22:19:06.244Z,365
2022-09-05T22:20:16.403Z,374
2022-09-05T22:21:38.436Z,377
2022-09-05T22:22:15.627Z,372
2022-09-05T22:23:07.397Z,370
2022-09-05T22:24:14.298Z,364
2022-09-05T22:26:16.223Z,368
2022-09-05T22:27:17.325Z,366
2022-09-05T22:28:14.927Z,373
2022-09-05T22:29:15.321Z,369
2022-09-05T22:30:07.242Z,358
2022-09-05T22:31:15.750Z,353
2022-09-05T22:32:15.794Z,361
2022-09-05T22:33:16.430Z,366
2022-09-05T22:35:32.748Z,375
2022-09-05T22:36:16.416Z,361
2022-09-05T22:37:16.248Z,366
2022-09-05T22:40:15.879Z,365
2022-09-05T22:42:16.017Z,377
2022-09-05T22:43:15.830Z,385
2022-09-05T22:44:15.380Z,386
2022-09-05T22:45:15.934Z,372
2022-09-05T22:46:15.841Z,374
2022-09-05T22:47:16.367Z,368
2022-09-05T22:48:15.582Z,372
2022-09-05T22:49:06.503Z,373
2022-09-05T22:50:15.908Z,369
2022-09-05T22:51:16.188Z,371
2022-09-05T22:52:15.850Z,374
2022-09-05T22:53:15.838Z,371
2022-09-05T22:54:06.822Z,369
2022-09-05T22:55:07.304Z,362
2022-09-05T22:56:15.735Z,367
2022-09-05T22:57:16.571Z,372
2022-09-05T22:58:16.249Z,373
2022-09-05T22:59:15.157Z,374
2022-09-05T23:00:15.860Z,369
2022-09-05T23:01:15.858Z,383
2022-09-05T23:02:15.947Z,386
2022-09-05T23:03:16.152Z,374
2022-09-05T23:04:15.483Z,373
2022-09-05T23:05:15.557Z,376
2022-09-05T23:06:16.075Z,384
2022-09-05T23:07:16.165Z,376
2022-09-05T23:08:15.225Z,372
2022-09-05T23:09:15.803Z,376
2022-09-05T23:10:07.564Z,380
2022-09-05T23:11:16.303Z,385
2022-09-05T23:12:15.894Z,384
2022-09-05T23:13:07.418Z,391
2022-09-05T23:14:15.005Z,383
2022-09-05T23:15:16.328Z,364
2022-09-05T23:16:06.858Z,372
2022-09-05T23:17:16.194Z,376